Time;durP1;ratioP1;P1;durP2;ratioP2;P2;SDS_P1;SDS_P2;PMS_P1;PMS_P2;Temp;Humidity;BMP_temperature;BMP_pressure;BME280_temperature;BME280_humidity;BME280_pressure;Samples;Min_cycle;Max_cycle;Signal;HPM_P1;HPM_P2
2023/09/11 00:01:58;;;;;;;10.20;6.90;;;21.60;99.90;;;;;;5066248;28;20181;-83
2023/09/11 00:04:24;;;;;;;10.20;7.07;;;21.60;99.90;;;;;;5067819;28;20205;-80
2023/09/11 00:06:49;;;;;;;8.50;6.20;;;21.50;99.90;;;;;;5067582;28;20544;-80
2023/09/11 00:09:15;;;;;;;12.80;7.43;;;21.50;99.90;;;;;;5067463;28;20237;-84
2023/09/11 00:11:41;;;;;;;9.10;6.30;;;21.50;99.90;;;;;;5067434;28;20634;-80
2023/09/11 00:14:06;;;;;;;10.47;5.97;;;21.50;99.90;;;;;;5066323;28;20208;-83
2023/09/11 00:16:32;;;;;;;9.47;6.87;;;21.50;99.90;;;;;;5067025;28;20213;-80
2023/09/11 00:18:58;;;;;;;9.30;5.60;;;21.50;99.90;;;;;;5067459;28;20263;-84
2023/09/11 00:21:23;;;;;;;9.30;6.47;;;21.50;99.90;;;;;;5065940;28;20204;-84
2023/09/11 00:23:49;;;;;;;9.87;6.07;;;21.50;99.90;;;;;;5065698;28;20650;-84
2023/09/11 00:26:16;;;;;;;13.20;5.80;;;21.50;99.90;;;;;;5067079;28;20193;-81
2023/09/11 00:28:42;;;;;;;13.40;6.60;;;21.50;99.90;;;;;;5067070;28;20933;-84
2023/09/11 00:31:07;;;;;;;10.47;6.83;;;21.40;99.90;;;;;;5066944;28;20422;-81
2023/09/11 00:33:33;;;;;;;8.93;6.10;;;21.40;99.90;;;;;;5065409;28;20180;-84
2023/09/11 00:35:59;;;;;;;10.10;6.70;;;21.40;99.90;;;;;;5066877;28;20430;-80
2023/09/11 00:38:24;;;;;;;10.40;6.90;;;21.30;99.90;;;;;;5066755;28;20173;-80
2023/09/11 00:40:50;;;;;;;11.47;7.20;;;21.30;99.90;;;;;;5066873;28;20193;-79
2023/09/11 00:43:15;;;;;;;11.83;6.43;;;21.30;99.90;;;;;;5065245;28;20185;-84
2023/09/11 00:45:42;;;;;;;9.13;6.00;;;21.30;99.90;;;;;;5066724;28;20216;-84
2023/09/11 00:48:08;;;;;;;8.70;7.00;;;21.20;99.90;;;;;;5064937;28;20268;-84
2023/09/11 00:50:34;;;;;;;14.37;7.23;;;21.20;99.90;;;;;;5066594;28;20460;-84
2023/09/11 00:53:02;;;;;;;11.47;6.60;;;21.20;99.90;;;;;;5066152;28;20417;-83
2023/09/11 00:55:28;;;;;;;10.53;7.07;;;21.10;99.90;;;;;;5065269;28;20501;-84
2023/09/11 00:57:53;;;;;;;10.10;8.33;;;21.10;99.90;;;;;;5064445;28;20503;-84
2023/09/11 01:00:19;;;;;;;9.30;5.90;;;21.10;99.90;;;;;;5065078;28;20207;-84
2023/09/11 01:02:45;;;;;;;10.13;6.50;;;21.00;99.90;;;;;;5066142;28;20180;-80
2023/09/11 01:05:11;;;;;;;13.90;7.40;;;21.00;99.90;;;;;;5064866;28;20804;-84
2023/09/11 01:07:37;;;;;;;10.23;7.60;;;21.00;99.90;;;;;;5064694;28;20424;-81
2023/09/11 01:10:07;;;;;;;10.97;7.30;;;20.90;99.90;;;;;;5065185;28;20221;-80
2023/09/11 01:12:36;;;;;;;9.90;6.70;;;20.80;99.90;;;;;;5064062;28;20397;-84
2023/09/11 01:15:04;;;;;;;8.23;6.30;;;20.80;99.90;;;;;;5064406;28;20846;-84
2023/09/11 01:17:40;;;;;;;10.13;6.50;;;20.70;99.90;;;;;;5066246;28;20725;-80
2023/09/11 01:20:15;;;;;;;11.90;6.23;;;20.60;99.90;;;;;;5064871;28;20441;-80
2023/09/11 01:22:47;;;;;;;8.70;6.07;;;20.60;99.90;;;;;;5065948;28;20421;-80
2023/09/11 01:25:27;;;;;;;9.60;6.63;;;20.60;99.90;;;;;;5066543;28;20963;-84
2023/09/11 01:28:14;;;;;;;10.37;6.97;;;20.50;99.90;;;;;;5064913;28;20484;-84
2023/09/11 01:30:45;;;;;;;9.97;6.83;;;20.50;99.90;;;;;;5064739;28;21156;-80
2023/09/11 01:33:11;;;;;;;11.27;7.13;;;20.50;99.90;;;;;;5065439;28;20770;-80
2023/09/11 01:35:37;;;;;;;11.60;6.97;;;20.40;99.90;;;;;;5066204;28;20518;-84
2023/09/11 01:38:03;;;;;;;9.00;6.67;;;20.40;99.90;;;;;;5064352;28;20927;-80
2023/09/11 01:40:32;;;;;;;6.97;6.07;;;20.40;99.90;;;;;;5065855;28;20196;-80
2023/09/11 01:43:01;;;;;;;9.83;6.50;;;20.40;99.90;;;;;;5065928;28;20393;-80
2023/09/11 01:45:29;;;;;;;12.30;6.40;;;20.40;99.90;;;;;;5065886;28;20960;-84
2023/09/11 01:47:58;;;;;;;8.93;6.57;;;20.30;99.90;;;;;;5063931;28;20443;-85
2023/09/11 01:50:25;;;;;;;7.37;6.47;;;20.30;99.90;;;;;;5065827;28;20464;-81
2023/09/11 01:52:51;;;;;;;10.63;7.00;;;20.30;99.90;;;;;;5064175;28;20428;-80
2023/09/11 01:55:17;;;;;;;12.20;7.70;;;20.30;99.90;;;;;;5065712;28;20491;-84
2023/09/11 01:57:43;;;;;;;11.10;7.60;;;20.30;99.90;;;;;;5065251;28;20489;-84
2023/09/11 02:00:09;;;;;;;11.17;7.23;;;20.30;99.90;;;;;;5063930;28;20445;-84
2023/09/11 02:02:35;;;;;;;13.00;7.00;;;20.30;99.90;;;;;;5065645;28;20568;-80
2023/09/11 02:05:04;;;;;;;8.73;6.90;;;20.30;99.90;;;;;;5063955;28;20564;-80
2023/09/11 02:07:30;;;;;;;10.53;7.30;;;20.20;99.90;;;;;;5065080;28;20225;-81
2023/09/11 02:09:56;;;;;;;13.60;7.40;;;20.20;99.90;;;;;;5064169;28;21064;-80
2023/09/11 02:12:22;;;;;;;7.67;6.93;;;20.20;99.90;;;;;;5064038;28;20576;-83
2023/09/11 02:14:48;;;;;;;12.53;8.10;;;20.10;99.90;;;;;;5064017;28;20522;-85
2023/09/11 02:17:14;;;;;;;10.67;6.73;;;20.10;99.90;;;;;;5064681;28;20410;-80
2023/09/11 02:19:39;;;;;;;6.67;5.90;;;20.10;99.90;;;;;;5064042;28;20448;-79
2023/09/11 02:22:05;;;;;;;10.00;6.63;;;20.00;99.90;;;;;;5065081;28;20173;-82
2023/09/11 02:24:31;;;;;;;11.00;7.00;;;20.00;99.90;;;;;;5063937;28;20289;-80
2023/09/11 02:26:57;;;;;;;7.47;6.50;;;20.00;99.90;;;;;;5063744;28;20204;-82
2023/09/11 02:29:22;;;;;;;9.30;7.00;;;20.00;99.90;;;;;;5065217;28;20619;-80
2023/09/11 02:31:48;;;;;;;9.17;7.40;;;20.00;99.90;;;;;;5064163;28;20566;-80
2023/09/11 02:34:14;;;;;;;10.53;6.93;;;19.90;99.90;;;;;;5064717;28;20176;-80
2023/09/11 02:36:39;;;;;;;10.37;5.70;;;19.90;99.90;;;;;;5063776;28;20218;-80
2023/09/11 02:39:05;;;;;;;9.90;6.80;;;19.90;99.90;;;;;;5065211;28;20187;-80
2023/09/11 02:41:30;;;;;;;11.63;8.03;;;19.80;99.90;;;;;;5067649;28;20200;-83
2023/09/11 02:43:56;;;;;;;10.10;8.30;;;19.80;99.90;;;;;;5069111;28;20264;-80
2023/09/11 02:46:22;;;;;;;12.03;8.47;;;19.80;99.90;;;;;;5068065;28;20192;-80
2023/09/11 02:48:48;;;;;;;12.60;7.70;;;19.80;99.90;;;;;;5067033;28;20183;-85
2023/09/11 02:51:14;;;;;;;10.27;7.40;;;19.70;99.90;;;;;;5069077;28;20185;-84
2023/09/11 02:53:40;;;;;;;12.00;6.90;;;19.70;99.90;;;;;;5068799;28;20429;-82
2023/09/11 02:56:06;;;;;;;11.80;7.53;;;19.70;99.90;;;;;;5068715;28;20611;-80
2023/09/11 02:58:32;;;;;;;10.30;7.63;;;19.70;99.90;;;;;;5068441;28;20432;-80
2023/09/11 03:01:02;;;;;;;10.70;7.23;;;19.70;99.90;;;;;;5068516;28;20199;-84
2023/09/11 03:03:28;;;;;;;10.80;6.57;;;19.70;99.90;;;;;;5067539;28;20459;-84
2023/09/11 03:06:01;;;;;;;9.03;6.40;;;19.60;99.90;;;;;;5067525;28;20457;-81
2023/09/11 03:08:28;;;;;;;8.77;6.70;;;19.70;99.90;;;;;;5066852;28;20908;-81
2023/09/11 03:11:02;;;;;;;10.20;6.57;;;19.80;99.90;;;;;;5067402;28;20436;-85
2023/09/11 03:13:28;;;;;;;11.30;6.63;;;19.90;99.90;;;;;;5068054;28;20429;-81
2023/09/11 03:15:53;;;;;;;10.30;7.63;;;20.00;99.90;;;;;;5068515;28;20529;-84
2023/09/11 03:18:20;;;;;;;8.77;6.83;;;20.10;99.90;;;;;;5065994;28;20254;-85
2023/09/11 03:20:53;;;;;;;7.70;6.53;;;20.20;99.90;;;;;;5066946;28;20246;-85
2023/09/11 03:23:20;;;;;;;9.23;7.07;;;20.20;99.90;;;;;;5066830;28;20800;-85
2023/09/11 03:25:47;;;;;;;9.33;7.13;;;20.20;99.90;;;;;;5067246;28;20471;-85
2023/09/11 03:28:13;;;;;;;10.23;6.17;;;20.30;99.90;;;;;;5068174;28;20974;-81
2023/09/11 03:30:39;;;;;;;15.73;7.40;;;20.30;99.90;;;;;;5072195;28;20542;-81
2023/09/11 03:33:04;;;;;;;13.17;6.60;;;20.40;99.90;;;;;;5087630;28;20570;-85
2023/09/11 03:35:30;;;;;;;11.73;6.50;;;20.40;99.90;;;;;;5086529;28;20207;-81
2023/09/11 03:37:55;;;;;;;10.77;7.47;;;20.50;99.90;;;;;;5084982;28;20247;-85
2023/09/11 03:40:22;;;;;;;11.90;7.03;;;20.50;99.90;;;;;;5086694;28;20191;-81
2023/09/11 03:42:48;;;;;;;5.87;5.27;;;20.50;99.90;;;;;;5085065;28;20190;-85
2023/09/11 03:45:14;;;;;;;7.90;6.50;;;20.60;99.90;;;;;;5085056;28;20460;-84
2023/09/11 03:47:40;;;;;;;11.60;6.60;;;20.60;99.90;;;;;;5084902;28;20172;-81
2023/09/11 03:50:07;;;;;;;8.60;7.17;;;20.60;99.90;;;;;;5086406;28;20220;-84
2023/09/11 03:52:32;;;;;;;12.10;6.97;;;20.60;99.90;;;;;;5084730;28;20420;-81
2023/09/11 03:54:58;;;;;;;11.30;7.03;;;20.50;99.90;;;;;;5085163;28;20826;-85
2023/09/11 03:57:24;;;;;;;10.90;7.00;;;20.40;99.90;;;;;;5086476;28;20387;-84
2023/09/11 03:59:49;;;;;;;8.60;6.90;;;20.30;99.90;;;;;;5086472;28;20712;-85
2023/09/11 04:02:15;;;;;;;11.20;7.93;;;20.10;99.90;;;;;;5084920;28;20479;-84
2023/09/11 04:04:41;;;;;;;10.67;7.20;;;20.00;99.90;;;;;;5081677;28;20204;-81
2023/09/11 04:07:06;;;;;;;10.60;7.50;;;20.00;99.90;;;;;;5085112;28;20657;-81
2023/09/11 04:09:32;;;;;;;8.30;7.40;;;20.00;99.90;;;;;;5086346;28;20230;-84
2023/09/11 04:12:00;;;;;;;10.73;7.40;;;19.90;99.90;;;;;;5085589;28;20662;-81
2023/09/11 04:14:26;;;;;;;14.77;7.00;;;20.00;99.90;;;;;;5086009;28;20436;-81
2023/09/11 04:16:51;;;;;;;9.30;7.13;;;19.90;99.90;;;;;;5087494;28;20471;-80
2023/09/11 04:19:17;;;;;;;8.53;6.70;;;19.80;99.90;;;;;;5085785;28;20186;-85
2023/09/11 04:21:42;;;;;;;9.40;7.00;;;19.70;99.90;;;;;;5086522;28;20606;-80
2023/09/11 04:24:12;;;;;;;12.97;7.07;;;19.70;99.90;;;;;;5086041;28;20262;-85
2023/09/11 04:26:39;;;;;;;10.83;7.80;;;19.50;99.90;;;;;;5084848;28;20186;-85
2023/09/11 04:29:05;;;;;;;12.17;6.47;;;19.60;99.90;;;;;;5085747;28;20416;-84
2023/09/11 04:31:31;;;;;;;8.33;7.30;;;19.60;99.90;;;;;;5087051;28;20424;-81
2023/09/11 04:33:57;;;;;;;11.20;7.37;;;19.70;99.90;;;;;;5085048;28;20424;-85
2023/09/11 04:36:22;;;;;;;9.77;7.70;;;19.70;99.90;;;;;;5085397;28;20622;-84
2023/09/11 04:38:48;;;;;;;14.30;8.27;;;19.70;99.90;;;;;;5085189;28;20233;-85
2023/09/11 04:41:14;;;;;;;11.47;8.07;;;19.70;99.90;;;;;;5085524;28;20340;-81
2023/09/11 04:43:39;;;;;;;8.60;7.37;;;19.70;99.90;;;;;;5084965;28;20543;-85
2023/09/11 04:46:05;;;;;;;9.53;7.20;;;19.70;99.90;;;;;;5083806;28;20514;-80
2023/09/11 04:48:31;;;;;;;13.30;7.20;;;19.70;99.90;;;;;;5083601;28;20183;-81
2023/09/11 04:50:56;;;;;;;10.73;6.67;;;19.60;99.90;;;;;;5083487;28;20232;-84
2023/09/11 04:53:22;;;;;;;13.23;7.40;;;19.50;99.90;;;;;;5082597;28;20249;-84
2023/09/11 04:55:47;;;;;;;12.63;8.33;;;19.50;99.90;;;;;;5083356;28;20228;-84
2023/09/11 04:58:14;;;;;;;10.30;8.30;;;19.50;99.90;;;;;;5083712;28;20223;-85
2023/09/11 05:00:40;;;;;;;20.23;12.20;;;19.40;99.90;;;;;;5083272;28;20499;-80
2023/09/11 05:03:06;;;;;;;12.90;8.70;;;19.50;99.90;;;;;;5082351;28;20180;-84
2023/09/11 05:05:38;;;;;;;10.27;7.97;;;19.50;99.90;;;;;;5080761;28;20679;-84
2023/09/11 05:08:05;;;;;;;12.60;7.77;;;19.50;99.90;;;;;;5080236;28;20238;-85
2023/09/11 05:10:31;;;;;;;10.50;7.67;;;19.50;99.90;;;;;;5070699;28;20787;-85
2023/09/11 05:12:57;;;;;;;15.30;8.40;;;19.50;99.90;;;;;;5074874;28;20734;-81
2023/09/11 05:15:23;;;;;;;10.40;7.53;;;19.50;99.90;;;;;;5083339;28;20895;-81
2023/09/11 05:17:49;;;;;;;11.33;8.40;;;19.60;99.90;;;;;;5083649;28;20436;-84
2023/09/11 05:20:16;;;;;;;9.20;7.50;;;19.70;99.90;;;;;;5083799;28;20199;-81
2023/09/11 05:22:41;;;;;;;16.40;8.87;;;19.70;99.90;;;;;;5083220;28;20434;-81
2023/09/11 05:25:08;;;;;;;10.07;7.53;;;19.80;99.90;;;;;;5082522;28;20456;-81
2023/09/11 05:27:34;;;;;;;12.30;10.47;;;19.80;99.90;;;;;;5075394;28;21218;-80
2023/09/11 05:29:59;;;;;;;11.57;7.40;;;19.90;99.90;;;;;;5079143;28;20475;-80
2023/09/11 05:32:25;;;;;;;12.20;7.83;;;19.90;99.90;;;;;;5079974;28;20188;-84
2023/09/11 05:34:52;;;;;;;11.53;8.30;;;20.00;99.90;;;;;;5081356;28;20441;-81
2023/09/11 05:37:18;;;;;;;12.43;8.50;;;20.10;99.90;;;;;;5077699;28;20261;-80
2023/09/11 05:39:44;;;;;;;9.70;7.53;;;20.10;99.90;;;;;;5076868;28;20927;-81
2023/09/11 05:42:10;;;;;;;9.40;7.27;;;20.20;99.90;;;;;;5077973;28;20183;-80
2023/09/11 05:44:36;;;;;;;11.57;7.50;;;20.30;99.90;;;;;;5083669;28;20544;-81
2023/09/11 05:47:03;;;;;;;11.00;8.80;;;20.30;99.90;;;;;;5082789;28;20492;-84
2023/09/11 05:49:28;;;;;;;13.33;8.57;;;20.40;99.90;;;;;;5080750;28;20633;-81
2023/09/11 05:51:55;;;;;;;10.57;7.83;;;20.50;99.90;;;;;;5079452;28;20436;-81
2023/09/11 05:54:20;;;;;;;12.27;7.07;;;20.60;99.90;;;;;;5080505;28;20187;-80
2023/09/11 05:56:46;;;;;;;15.87;8.37;;;20.70;99.90;;;;;;5080230;28;20547;-81
2023/09/11 05:59:12;;;;;;;11.20;7.73;;;20.80;99.90;;;;;;5078954;28;20483;-85
2023/09/11 06:01:37;;;;;;;13.00;7.30;;;20.80;99.90;;;;;;5077635;28;20352;-81
2023/09/11 06:04:03;;;;;;;11.23;8.63;;;20.90;99.90;;;;;;5078320;28;20343;-80
2023/09/11 06:06:30;;;;;;;10.70;7.73;;;20.90;99.90;;;;;;5074565;28;20202;-80
2023/09/11 06:08:57;;;;;;;14.20;8.67;;;20.90;99.90;;;;;;5079206;28;20807;-85
2023/09/11 06:11:23;;;;;;;9.87;7.33;;;21.00;99.90;;;;;;5075584;28;20961;-85
2023/09/11 06:13:49;;;;;;;13.17;9.00;;;21.10;99.90;;;;;;5074279;28;20440;-80
2023/09/11 06:16:15;;;;;;;11.00;8.73;;;21.20;99.90;;;;;;5081669;28;20219;-84
2023/09/11 06:18:40;;;;;;;11.73;8.10;;;21.30;99.90;;;;;;5083029;28;20177;-84
2023/09/11 06:21:06;;;;;;;13.80;8.23;;;21.30;99.90;;;;;;5076601;28;20339;-81
2023/09/11 06:23:32;;;;;;;11.77;8.43;;;21.40;99.90;;;;;;5079894;28;20245;-84
2023/09/11 06:25:57;;;;;;;14.50;8.40;;;21.40;99.90;;;;;;5083359;28;20204;-84
2023/09/11 06:28:23;;;;;;;13.23;8.67;;;21.60;99.90;;;;;;5082610;28;20210;-84
2023/09/11 06:30:49;;;;;;;11.70;7.50;;;21.60;99.90;;;;;;5082283;28;20238;-81
2023/09/11 06:33:14;;;;;;;10.50;7.83;;;21.70;99.90;;;;;;5084901;28;20467;-84
2023/09/11 06:35:40;;;;;;;27.00;14.90;;;21.80;99.90;;;;;;5084505;28;20212;-84
2023/09/11 06:38:05;;;;;;;11.57;9.40;;;21.90;99.90;;;;;;5080613;28;20406;-82
2023/09/11 06:40:31;;;;;;;11.10;8.53;;;22.10;99.90;;;;;;5079021;28;20724;-83
2023/09/11 06:42:57;;;;;;;8.50;7.57;;;22.10;99.90;;;;;;5083925;28;20722;-81
2023/09/11 06:45:23;;;;;;;12.90;7.90;;;22.20;99.90;;;;;;5086616;28;20227;-85
2023/09/11 06:47:48;;;;;;;9.93;8.93;;;22.30;99.90;;;;;;5085521;28;20668;-83
2023/09/11 06:50:14;;;;;;;11.37;7.90;;;22.40;99.90;;;;;;5082677;28;20330;-81
2023/09/11 06:52:40;;;;;;;12.00;8.17;;;22.40;99.90;;;;;;5077903;28;20190;-84
2023/09/11 06:55:10;;;;;;;10.20;7.60;;;22.50;99.90;;;;;;5086002;28;20970;-81
2023/09/11 06:57:40;;;;;;;10.47;8.17;;;22.60;99.90;;;;;;5077477;28;20424;-81
2023/09/11 07:00:10;;;;;;;11.80;8.50;;;22.70;99.90;;;;;;5085431;28;20476;-81
2023/09/11 07:02:38;;;;;;;16.87;8.97;;;22.80;99.90;;;;;;5082787;28;20802;-84
2023/09/11 07:05:04;;;;;;;16.70;8.30;;;22.90;99.90;;;;;;5079543;28;20457;-81
2023/09/11 07:07:30;;;;;;;10.93;7.97;;;23.00;99.90;;;;;;5080686;28;20434;-81
2023/09/11 07:09:56;;;;;;;9.63;7.87;;;23.20;99.90;;;;;;5082033;28;20510;-81
2023/09/11 07:12:22;;;;;;;10.37;8.67;;;23.30;99.90;;;;;;5078526;28;20534;-81
2023/09/11 07:14:48;;;;;;;10.50;8.30;;;23.50;99.90;;;;;;5080549;28;20201;-84
2023/09/11 07:17:13;;;;;;;10.57;8.20;;;23.60;99.90;;;;;;5081600;28;20458;-84
2023/09/11 07:19:39;;;;;;;10.63;8.63;;;23.70;99.90;;;;;;5080000;28;20728;-80
2023/09/11 07:22:06;;;;;;;11.83;8.10;;;23.80;99.90;;;;;;5080502;28;20496;-83
2023/09/11 07:24:31;;;;;;;9.40;8.40;;;24.00;99.90;;;;;;5078359;28;20674;-81
2023/09/11 07:26:57;;;;;;;9.80;7.80;;;24.10;99.90;;;;;;5090626;28;20422;-82
2023/09/11 07:29:26;;;;;;;9.80;8.00;;;24.20;99.90;;;;;;5085200;28;20192;-83
2023/09/11 07:31:52;;;;;;;8.20;6.20;;;24.30;99.90;;;;;;5082787;28;20202;-84
2023/09/11 07:34:18;;;;;;;10.43;8.13;;;24.40;99.90;;;;;;5084941;28;20988;-81
2023/09/11 07:36:43;;;;;;;8.33;7.40;;;24.60;99.90;;;;;;5082713;28;20490;-81
2023/09/11 07:39:09;;;;;;;8.20;7.40;;;24.70;99.90;;;;;;5079785;28;20184;-84
2023/09/11 07:41:35;;;;;;;8.97;7.50;;;24.80;99.90;;;;;;5084043;28;20204;-83
2023/09/11 07:44:01;;;;;;;8.97;8.10;;;24.90;99.90;;;;;;5080986;28;20602;-84
2023/09/11 07:46:28;;;;;;;9.40;6.73;;;25.00;99.90;;;;;;5081596;28;20512;-81
2023/09/11 07:48:54;;;;;;;9.43;7.57;;;25.10;99.90;;;;;;5082172;28;20176;-84
2023/09/11 07:51:20;;;;;;;8.27;7.47;;;25.30;99.90;;;;;;5085746;28;20490;-84
2023/09/11 07:53:45;;;;;;;8.73;6.63;;;25.40;99.90;;;;;;5079154;28;20191;-84
2023/09/11 07:56:12;;;;;;;9.13;6.87;;;25.50;99.90;;;;;;5080325;28;20802;-80
2023/09/11 07:58:38;;;;;;;10.10;7.50;;;25.60;99.90;;;;;;5082055;28;20245;-80
2023/09/11 08:01:04;;;;;;;9.77;8.27;;;25.80;99.90;;;;;;5080396;28;20561;-81
2023/09/11 08:03:33;;;;;;;8.40;7.20;;;26.00;99.90;;;;;;5076292;28;20869;-84
2023/09/11 08:06:01;;;;;;;9.20;6.97;;;26.10;99.90;;;;;;5081748;28;20563;-80
2023/09/11 08:08:27;;;;;;;8.97;7.00;;;26.20;99.90;;;;;;5080731;28;20432;-84
2023/09/11 08:10:53;;;;;;;10.23;7.20;;;26.40;99.90;;;;;;5081321;28;20441;-84
2023/09/11 08:13:18;;;;;;;11.30;6.60;;;26.50;99.90;;;;;;5079362;28;20946;-81
2023/09/11 08:15:44;;;;;;;10.30;7.17;;;26.60;99.90;;;;;;5081719;28;20384;-81
2023/09/11 08:18:10;;;;;;;11.37;7.40;;;26.80;99.90;;;;;;5082807;28;20269;-83
2023/09/11 08:20:36;;;;;;;8.67;7.00;;;26.90;99.90;;;;;;5082047;28;20392;-83
2023/09/11 08:23:02;;;;;;;6.83;6.10;;;27.10;99.90;;;;;;5082240;28;20177;-84
2023/09/11 08:25:28;;;;;;;10.20;6.90;;;27.20;99.90;;;;;;5078230;28;20622;-84
2023/09/11 08:27:54;;;;;;;8.60;6.60;;;27.30;99.90;;;;;;5080399;28;20177;-84
2023/09/11 08:30:20;;;;;;;8.27;6.37;;;27.70;99.90;;;;;;5081491;28;20986;-84
2023/09/11 08:32:46;;;;;;;6.53;5.93;;;28.40;99.90;;;;;;5094401;28;20567;-81
2023/09/11 08:35:11;;;;;;;6.83;6.23;;;29.10;99.90;;;;;;5080263;28;20316;-81
2023/09/11 08:37:37;;;;;;;9.93;6.00;;;29.90;99.80;;;;;;5085438;28;20183;-81
2023/09/11 08:40:03;;;;;;;7.50;6.67;;;30.50;99.10;;;;;;5082256;28;20204;-84
2023/09/11 08:42:29;;;;;;;7.90;6.57;;;30.70;98.10;;;;;;5084463;28;20538;-82
2023/09/11 08:44:55;;;;;;;7.00;6.23;;;30.80;97.50;;;;;;5079911;28;20465;-84
2023/09/11 08:47:28;;;;;;;5.90;5.33;;;30.70;97.50;;;;;;5075688;28;20771;-80
2023/09/11 08:49:59;;;;;;;8.90;6.63;;;30.60;97.60;;;;;;5071306;28;20244;-81
2023/09/11 08:52:26;;;;;;;8.97;6.07;;;30.40;96.30;;;;;;5069595;28;20505;-84
2023/09/11 08:54:55;;;;;;;7.10;6.50;;;30.30;96.60;;;;;;5079685;28;20447;-83
2023/09/11 08:57:24;;;;;;;7.70;6.50;;;30.20;96.20;;;;;;5079672;28;20711;-80
2023/09/11 08:59:53;;;;;;;7.73;6.93;;;30.00;96.10;;;;;;5078717;28;20450;-82
2023/09/11 09:02:21;;;;;;;39.07;21.83;;;29.90;96.30;;;;;;5077631;28;20655;-82
2023/09/11 09:04:49;;;;;;;9.23;6.50;;;29.90;95.70;;;;;;5080466;28;21012;-82
2023/09/11 09:07:16;;;;;;;6.40;5.80;;;29.90;96.00;;;;;;5078338;28;20450;-81
2023/09/11 09:09:44;;;;;;;6.33;5.83;;;29.80;95.40;;;;;;5076628;28;20543;-85
2023/09/11 09:12:11;;;;;;;7.50;5.73;;;29.90;94.80;;;;;;5080438;28;20454;-81
2023/09/11 09:14:39;;;;;;;6.73;5.73;;;30.00;95.00;;;;;;5072068;28;21033;-84
2023/09/11 09:17:07;;;;;;;6.80;5.70;;;30.10;94.20;;;;;;5068956;28;20814;-81
2023/09/11 09:19:33;;;;;;;8.43;6.53;;;30.10;94.50;;;;;;5061551;28;20885;-84
2023/09/11 09:22:05;;;;;;;7.90;5.90;;;30.20;94.50;;;;;;5078678;28;20449;-81
2023/09/11 09:24:53;;;;;;;5.60;5.10;;;30.20;93.90;;;;;;5077793;28;20208;-81
2023/09/11 09:27:20;;;;;;;6.77;6.10;;;30.30;93.70;;;;;;5078137;28;20435;-81
2023/09/11 09:29:47;;;;;;;7.73;6.00;;;30.30;93.50;;;;;;5080291;28;20470;-85
2023/09/11 09:32:13;;;;;;;7.03;6.33;;;30.30;93.70;;;;;;5076420;28;20421;-85
2023/09/11 09:34:48;;;;;;;5.97;5.47;;;30.30;94.10;;;;;;5078254;28;20483;-81
2023/09/11 09:37:18;;;;;;;5.93;5.53;;;30.10;94.60;;;;;;5077940;28;20459;-82
2023/09/11 09:39:45;;;;;;;7.57;6.60;;;30.10;93.40;;;;;;5092454;28;20806;-81
2023/09/11 09:42:12;;;;;;;6.83;6.10;;;30.20;93.50;;;;;;5077803;28;20493;-81
2023/09/11 09:44:43;;;;;;;7.03;6.13;;;30.20;93.10;;;;;;5075233;28;20812;-85
2023/09/11 09:47:11;;;;;;;6.00;5.40;;;30.30;93.00;;;;;;5078174;28;20424;-85
2023/09/11 09:49:44;;;;;;;14.90;6.20;;;30.20;92.90;;;;;;5076147;28;20488;-85
2023/09/11 09:52:11;;;;;;;8.10;5.80;;;30.20;92.40;;;;;;5077632;28;20629;-81
2023/09/11 09:55:02;;;;;;;6.10;5.60;;;30.20;92.60;;;;;;5069416;28;21099;-81
2023/09/11 09:57:28;;;;;;;6.40;5.67;;;30.20;92.70;;;;;;5067231;28;20444;-85
2023/09/11 09:59:57;;;;;;;7.13;5.67;;;30.20;92.20;;;;;;5068487;28;20565;-81
2023/09/11 10:02:23;;;;;;;9.60;5.87;;;30.20;91.70;;;;;;5065900;28;20423;-84
2023/09/11 10:05:16;;;;;;;6.57;5.83;;;30.20;91.90;;;;;;5064782;28;20561;-84
2023/09/11 10:07:45;;;;;;;8.07;6.10;;;30.30;92.10;;;;;;5071128;28;20444;-85
2023/09/11 10:10:23;;;;;;;6.57;5.93;;;30.30;92.30;;;;;;5087059;28;20683;-85
2023/09/11 10:13:04;;;;;;;4.90;4.50;;;30.40;91.70;;;;;;5080088;28;21180;-85
2023/09/11 10:15:32;;;;;;;4.87;4.37;;;30.40;92.30;;;;;;5065327;28;20628;-84
2023/09/11 10:17:58;;;;;;;5.80;5.27;;;30.20;91.40;;;;;;5067763;28;20706;-81
2023/09/11 10:20:24;;;;;;;6.77;5.60;;;30.30;91.10;;;;;;5069394;28;20456;-82
2023/09/11 10:22:58;;;;;;;6.70;5.70;;;30.40;90.70;;;;;;5059138;28;20420;-81
2023/09/11 10:25:27;;;;;;;6.23;5.60;;;30.50;91.10;;;;;;5072739;28;20458;-84
2023/09/11 10:28:02;;;;;;;5.60;4.70;;;30.60;90.40;;;;;;5073491;28;20708;-84
2023/09/11 10:30:48;;;;;;;6.27;4.73;;;30.70;90.20;;;;;;5076094;28;21004;-82
2023/09/11 10:33:23;;;;;;;6.70;5.47;;;30.70;90.00;;;;;;5068613;28;20460;-84
2023/09/11 10:35:54;;;;;;;6.10;5.33;;;30.70;90.70;;;;;;5076462;28;20579;-84
2023/09/11 10:38:20;;;;;;;5.10;4.60;;;30.70;90.80;;;;;;5074152;28;20755;-86
2023/09/11 10:40:47;;;;;;;10.37;4.80;;;30.80;90.10;;;;;;5077735;28;20448;-83
2023/09/11 10:43:13;;;;;;;5.50;5.00;;;30.80;89.80;;;;;;5080611;28;20761;-84
2023/09/11 10:45:40;;;;;;;5.83;4.70;;;30.80;88.80;;;;;;5081579;28;20486;-82
2023/09/11 10:48:06;;;;;;;7.20;5.13;;;30.80;89.00;;;;;;5073046;28;20432;-82
2023/09/11 10:50:42;;;;;;;8.10;5.80;;;30.90;90.50;;;;;;5076243;28;20452;-84
2023/09/11 10:53:08;;;;;;;5.90;5.30;;;30.90;90.30;;;;;;5061324;28;20187;-82
2023/09/11 10:55:35;;;;;;;5.70;5.10;;;31.00;90.00;;;;;;5070880;28;20499;-81
2023/09/11 10:58:05;;;;;;;5.30;4.80;;;31.00;88.60;;;;;;5074357;28;20515;-82
2023/09/11 11:00:39;;;;;;;5.13;4.03;;;31.00;88.00;;;;;;5075535;28;20440;-81
2023/09/11 11:03:06;;;;;;;5.20;4.70;;;31.00;88.50;;;;;;5077447;28;20423;-81
2023/09/11 11:05:32;;;;;;;5.83;5.23;;;31.00;89.60;;;;;;5082672;28;21022;-83
2023/09/11 11:07:58;;;;;;;5.87;5.23;;;31.10;87.40;;;;;;5086320;28;20777;-84
2023/09/11 11:10:25;;;;;;;6.17;4.90;;;31.10;87.30;;;;;;5077037;28;20443;-84
2023/09/11 11:13:07;;;;;;;5.27;4.77;;;31.10;87.00;;;;;;5077811;28;20715;-81
2023/09/11 11:15:34;;;;;;;6.77;5.17;;;31.00;89.30;;;;;;5071768;28;20464;-81
2023/09/11 11:18:11;;;;;;;4.90;4.50;;;31.00;90.40;;;;;;5074233;28;20848;-85
2023/09/11 11:20:38;;;;;;;5.83;5.07;;;31.00;90.00;;;;;;5072190;28;20451;-80
2023/09/11 11:23:11;;;;;;;5.97;4.80;;;31.00;89.50;;;;;;5082337;28;20413;-81
2023/09/11 11:25:41;;;;;;;5.53;5.03;;;31.10;89.60;;;;;;5076151;28;20973;-84
2023/09/11 11:28:17;;;;;;;5.73;5.17;;;31.20;88.20;;;;;;5074261;28;21204;-81
2023/09/11 11:30:44;;;;;;;5.47;4.97;;;31.20;86.60;;;;;;5079241;28;20463;-85
2023/09/11 11:33:15;;;;;;;6.10;4.57;;;31.20;87.70;;;;;;5077057;28;20826;-80
2023/09/11 11:35:45;;;;;;;6.00;4.70;;;31.20;87.50;;;;;;5077938;28;20490;-81
2023/09/11 11:38:29;;;;;;;6.50;4.20;;;31.30;85.50;;;;;;5057725;28;20526;-82
2023/09/11 11:40:56;;;;;;;4.70;4.30;;;31.30;84.30;;;;;;5025372;28;20446;-81
2023/09/11 11:43:22;;;;;;;5.67;4.70;;;31.20;87.60;;;;;;5046929;28;20734;-81
2023/09/11 11:45:48;;;;;;;6.53;5.43;;;31.20;84.50;;;;;;5031752;28;20446;-80
2023/09/11 11:48:15;;;;;;;7.20;4.77;;;31.20;86.90;;;;;;5047314;28;21120;-84
2023/09/11 11:50:47;;;;;;;5.47;4.83;;;31.20;86.40;;;;;;5026821;28;20502;-81
2023/09/11 11:53:20;;;;;;;4.43;4.03;;;31.30;83.60;;;;;;5035099;28;20499;-81
2023/09/11 11:55:46;;;;;;;4.57;4.17;;;31.30;86.40;;;;;;5049366;28;20760;-84
2023/09/11 11:58:13;;;;;;;4.27;3.90;;;31.20;89.20;;;;;;5043846;28;20970;-81
2023/09/11 12:00:40;;;;;;;5.93;4.90;;;31.20;89.50;;;;;;5040741;28;20475;-81
2023/09/11 12:03:07;;;;;;;5.90;5.30;;;31.10;89.70;;;;;;5047691;28;20695;-81
2023/09/11 12:05:35;;;;;;;4.97;4.57;;;31.20;86.40;;;;;;5060783;28;20528;-80
2023/09/11 12:08:02;;;;;;;4.60;4.20;;;31.20;85.60;;;;;;5056392;28;20872;-84
2023/09/11 12:10:29;;;;;;;4.70;4.07;;;31.20;84.20;;;;;;5030885;28;20531;-81
2023/09/11 12:12:55;;;;;;;5.30;4.63;;;31.30;83.00;;;;;;5047900;28;20865;-81
2023/09/11 12:15:21;;;;;;;9.70;4.30;;;31.30;84.00;;;;;;5037221;28;20460;-84
2023/09/11 12:17:48;;;;;;;7.00;4.23;;;31.40;82.30;;;;;;5030770;28;20464;-81
2023/09/11 12:20:19;;;;;;;6.13;4.37;;;31.40;83.90;;;;;;5038024;28;20232;-80
2023/09/11 12:22:46;;;;;;;5.03;4.60;;;31.40;82.20;;;;;;5046366;28;20426;-85
2023/09/11 12:25:14;;;;;;;5.20;4.70;;;31.50;81.60;;;;;;5035019;28;20448;-81
2023/09/11 12:27:40;;;;;;;4.87;4.37;;;31.60;81.20;;;;;;5033355;28;20703;-85
2023/09/11 12:30:08;;;;;;;5.30;4.80;;;31.60;84.10;;;;;;5040497;28;20476;-85
2023/09/11 12:32:33;;;;;;;5.10;4.60;;;31.60;85.90;;;;;;5036558;28;21174;-84
2023/09/11 12:35:00;;;;;;;5.07;4.57;;;31.50;85.80;;;;;;5065389;28;20480;-81
2023/09/11 12:37:26;;;;;;;4.67;4.10;;;31.60;84.10;;;;;;5060040;28;20723;-84
2023/09/11 12:39:53;;;;;;;5.23;4.00;;;31.60;81.80;;;;;;5054942;28;20877;-84
2023/09/11 12:42:19;;;;;;;4.50;4.10;;;31.60;80.90;;;;;;5043275;28;20752;-80
2023/09/11 12:44:46;;;;;;;5.73;5.13;;;31.60;81.90;;;;;;5033461;28;20743;-80